Terminal Aerodrome Forecast
Issued by NWS Pocatello, ID

Home | Current Version | Previous Version | Text Only | Print | Product List | Glossary On
Versions: 1 2 3 4 5 6 7 8 9 10 11 12 13 14 15 16
627
FTUS45 KPIH 291720
TAFIDA
TAF
KIDA 291720Z 2918/3018 20015G25KT P6SM SCT040 BKN080
     FM300100 20008KT P6SM VCSH SCT020 OVC050
     FM300600 20012G22KT P6SM -SHRA OVC030
     FM300800 19013G23KT 6SM -SHRA BR BKN010 OVC020=

USA.gov is the U.S. government's official web portal to all federal, state and local government web resources and services.